Time;durP1;ratioP1;P1;durP2;ratioP2;P2;SDS_P1;SDS_P2;PMS_P1;PMS_P2;Temp;Humidity;BMP_temperature;BMP_pressure;BME280_temperature;BME280_humidity;BME280_pressure;Samples;Min_cycle;Max_cycle;Signal;HPM_P1;HPM_P2
2022/04/23 00:01:11;;;;;;;7.70;5.50;;;12.10;99.90;;;;;;5094407;28;20047;-69
2022/04/23 00:03:37;;;;;;;10.63;5.47;;;;;;;;;;5093902;28;20120;-68
2022/04/23 00:06:03;;;;;;;11.82;5.82;;;12.10;99.90;;;;;;5093692;28;20036;-68
2022/04/23 00:08:28;;;;;;;8.95;5.53;;;12.10;99.90;;;;;;5076603;28;20418;-69
2022/04/23 00:10:54;;;;;;;9.90;5.93;;;12.10;99.90;;;;;;5076211;28;20409;-69
2022/04/23 00:13:20;;;;;;;10.13;6.55;;;12.10;99.90;;;;;;5095148;28;20132;-69
2022/04/23 00:15:46;;;;;;;10.93;6.25;;;12.10;99.90;;;;;;5076643;28;20494;-68
2022/04/23 00:18:12;;;;;;;9.15;6.30;;;12.00;99.90;;;;;;5094676;28;20046;-69
2022/04/23 00:20:38;;;;;;;12.07;6.70;;;12.20;99.90;;;;;;5093942;28;20032;-68
2022/04/23 00:23:05;;;;;;;8.82;6.30;;;12.20;99.90;;;;;;5093350;28;20146;-70
2022/04/23 00:25:31;;;;;;;11.48;6.68;;;12.10;99.90;;;;;;5093315;28;20040;-69
2022/04/23 00:27:58;;;;;;;8.68;6.55;;;12.10;99.90;;;;;;5093577;28;20063;-68
2022/04/23 00:30:23;;;;;;;11.30;7.55;;;12.20;99.90;;;;;;5093921;28;20035;-68
2022/04/23 00:32:49;;;;;;;11.25;7.28;;;12.00;99.90;;;;;;5094666;28;20478;-68
2022/04/23 00:35:17;;;;;;;14.43;7.35;;;12.20;99.90;;;;;;5093365;28;20167;-68
2022/04/23 00:37:44;;;;;;;17.15;9.25;;;11.90;99.90;;;;;;5076381;28;20048;-69
2022/04/23 00:40:16;;;;;;;10.38;7.38;;;12.00;99.90;;;;;;5093387;28;20055;-69
2022/04/23 00:42:51;;;;;;;12.75;8.88;;;11.90;99.90;;;;;;5094415;28;20044;-69
2022/04/23 00:45:17;;;;;;;13.20;8.35;;;;;;;;;;5093051;28;20047;-68
2022/04/23 00:47:43;;;;;;;16.05;7.78;;;11.80;99.90;;;;;;5092874;28;20082;-68
2022/04/23 00:50:09;;;;;;;14.80;9.10;;;11.80;99.90;;;;;;5092144;28;20043;-68
2022/04/23 00:52:35;;;;;;;13.02;7.30;;;11.80;99.90;;;;;;5092681;28;20039;-68
2022/04/23 00:55:03;;;;;;;11.73;7.50;;;11.90;99.90;;;;;;5093143;28;20047;-69
2022/04/23 00:57:29;;;;;;;10.80;7.63;;;;;;;;;;5092707;28;20402;-68
2022/04/23 00:59:55;;;;;;;14.68;8.02;;;;;;;;;;5092136;28;20054;-68
2022/04/23 01:02:22;;;;;;;11.55;7.80;;;;;;;;;;5093914;28;20066;-68
2022/04/23 01:04:48;;;;;;;14.27;7.60;;;11.60;99.90;;;;;;5092466;28;20043;-68
2022/04/23 01:07:14;;;;;;;14.60;8.25;;;11.60;99.90;;;;;;5091645;28;20032;-68
2022/04/23 01:09:44;;;;;;;13.07;7.78;;;11.80;99.90;;;;;;5093214;28;20128;-69
2022/04/23 01:12:10;;;;;;;11.02;7.55;;;11.60;99.90;;;;;;5093921;28;20040;-69
2022/04/23 01:15:05;;;;;;;11.82;7.38;;;11.30;99.90;;;;;;5092568;28;20032;-68
2022/04/23 01:17:31;;;;;;;17.83;7.28;;;;;;;;;;5093796;28;20043;-68
2022/04/23 01:19:57;;;;;;;9.88;6.68;;;11.10;99.90;;;;;;5074641;28;20481;-68
2022/04/23 01:22:24;;;;;;;13.88;8.02;;;11.50;99.90;;;;;;5093750;28;20040;-68
2022/04/23 01:24:54;;;;;;;10.88;7.00;;;11.50;99.90;;;;;;5093604;28;20032;-68
2022/04/23 01:27:24;;;;;;;10.50;7.10;;;11.70;99.90;;;;;;5092110;28;20039;-68
2022/04/23 01:29:50;;;;;;;15.23;7.20;;;;;;;;;;5091383;28;20032;-68
2022/04/23 01:32:16;;;;;;;12.57;8.00;;;;;;;;;;5092188;28;20379;-69
2022/04/23 01:34:42;;;;;;;12.85;7.63;;;;;;;;;;5075074;28;20046;-69
2022/04/23 01:37:08;;;;;;;11.50;7.55;;;11.50;99.90;;;;;;5093313;28;20036;-68
2022/04/23 01:39:34;;;;;;;13.38;7.57;;;;;;;;;;5092766;28;20313;-68
2022/04/23 01:41:59;;;;;;;13.98;8.02;;;11.20;99.90;;;;;;5074881;28;20040;-68
2022/04/23 01:44:25;;;;;;;15.82;8.88;;;11.20;99.90;;;;;;5093205;28;20036;-68
2022/04/23 01:46:51;;;;;;;18.50;9.13;;;;;;;;;;5091518;28;20063;-68
2022/04/23 01:49:17;;;;;;;14.40;7.47;;;11.30;99.90;;;;;;5090904;28;20043;-68
2022/04/23 01:51:43;;;;;;;11.43;8.27;;;;;;;;;;5091311;28;20067;-69
2022/04/23 01:54:08;;;;;;;11.93;8.23;;;;;;;;;;5093146;28;20044;-69
2022/04/23 01:56:34;;;;;;;11.40;8.00;;;;;;;;;;5092086;28;20043;-69
2022/04/23 01:59:00;;;;;;;13.60;8.60;;;;;;;;;;5092620;28;20116;-67
2022/04/23 02:01:26;;;;;;;15.82;10.27;;;;;;;;;;5091844;28;20075;-69
2022/04/23 02:03:52;;;;;;;13.55;8.50;;;11.10;99.90;;;;;;5093137;28;20119;-69
2022/04/23 02:06:18;;;;;;;14.05;10.10;;;11.20;99.90;;;;;;5091762;28;20036;-69
2022/04/23 02:08:44;;;;;;;11.25;7.75;;;;;;;;;;5092552;28;20508;-72
2022/04/23 02:11:10;;;;;;;15.50;10.23;;;;;;;;;;5073980;28;20139;-72
2022/04/23 02:13:36;;;;;;;16.05;10.52;;;;;;;;;;5092696;28;20035;-68
2022/04/23 02:16:04;;;;;;;15.48;9.27;;;11.10;99.90;;;;;;5091157;28;20444;-69
2022/04/23 02:18:31;;;;;;;12.80;8.98;;;10.90;99.90;;;;;;5091316;28;20475;-68
2022/04/23 02:20:57;;;;;;;13.13;9.48;;;11.10;99.90;;;;;;5090380;28;20036;-68
2022/04/23 02:23:23;;;;;;;13.95;8.88;;;10.90;99.90;;;;;;5092753;28;20039;-68
2022/04/23 02:25:48;;;;;;;14.63;8.52;;;11.00;99.90;;;;;;5092443;28;20115;-69
2022/04/23 02:28:14;;;;;;;15.27;8.57;;;10.80;99.90;;;;;;5091063;28;20028;-68
2022/04/23 02:30:40;;;;;;;14.30;9.75;;;11.00;99.90;;;;;;5091459;28;20040;-68
2022/04/23 02:33:05;;;;;;;15.52;9.40;;;11.00;99.90;;;;;;5092416;28;20462;-68
2022/04/23 02:35:34;;;;;;;15.50;9.25;;;;;;;;;;5073991;28;20067;-69
2022/04/23 02:38:02;;;;;;;16.02;10.60;;;10.90;99.90;;;;;;5090002;28;20043;-68
2022/04/23 02:40:28;;;;;;;15.60;10.18;;;10.70;99.90;;;;;;5090246;28;20044;-69
2022/04/23 02:42:56;;;;;;;16.23;10.32;;;10.90;99.90;;;;;;5092046;28;20032;-68
2022/04/23 02:45:23;;;;;;;12.98;9.95;;;;;;;;;;5091938;28;20043;-69
2022/04/23 02:47:52;;;;;;;15.23;9.57;;;10.70;99.90;;;;;;5090772;28;20572;-69
2022/04/23 02:50:37;;;;;;;18.02;10.43;;;10.90;99.90;;;;;;5090028;28;20036;-68
2022/04/23 02:53:04;;;;;;;14.43;9.25;;;10.80;99.90;;;;;;5091976;28;20111;-68
2022/04/23 02:55:31;;;;;;;17.55;10.80;;;;;;;;;;5091809;28;20044;-69
2022/04/23 02:58:01;;;;;;;14.65;9.27;;;10.90;99.90;;;;;;5073456;28;20068;-68
2022/04/23 03:00:26;;;;;;;16.75;9.70;;;10.80;99.90;;;;;;5089803;28;20036;-68
2022/04/23 03:02:52;;;;;;;14.30;10.45;;;10.80;99.90;;;;;;5073592;28;20047;-68
2022/04/23 03:05:18;;;;;;;15.88;9.68;;;10.70;99.90;;;;;;5090487;28;20157;-68
2022/04/23 03:07:45;;;;;;;16.38;10.90;;;10.80;99.90;;;;;;5091666;28;20043;-68
2022/04/23 03:10:13;;;;;;;14.02;10.00;;;10.70;99.90;;;;;;5072976;28;20047;-69
2022/04/23 03:12:38;;;;;;;14.38;9.60;;;10.80;99.90;;;;;;5073454;28;20093;-68
2022/04/23 03:15:11;;;;;;;17.55;10.27;;;10.80;99.90;;;;;;5073478;28;20040;-68
2022/04/23 03:17:37;;;;;;;16.20;9.80;;;;;;;;;;5090221;28;20036;-68
2022/04/23 03:20:04;;;;;;;16.13;10.30;;;10.80;99.90;;;;;;5089764;28;20509;-68
2022/04/23 03:22:30;;;;;;;14.23;9.75;;;;;;;;;;5091501;28;20143;-69
2022/04/23 03:24:56;;;;;;;16.17;9.43;;;;;;;;;;5090374;28;20059;-68
2022/04/23 03:27:22;;;;;;;15.50;10.43;;;10.70;99.90;;;;;;5090152;28;20040;-68
2022/04/23 03:29:48;;;;;;;18.15;10.27;;;;;;;;;;5091573;28;20043;-68
2022/04/23 03:32:14;;;;;;;19.17;10.63;;;;;;;;;;5095558;28;20032;-68
2022/04/23 03:34:40;;;;;;;13.85;9.95;;;10.70;99.90;;;;;;5094353;28;20490;-69
2022/04/23 03:37:06;;;;;;;16.48;9.65;;;10.60;99.90;;;;;;5095617;28;20051;-69
2022/04/23 03:39:32;;;;;;;14.65;9.85;;;10.80;99.90;;;;;;5094689;28;20546;-69
2022/04/23 03:41:58;;;;;;;13.55;9.23;;;10.60;99.90;;;;;;5094229;28;20207;-68
2022/04/23 03:44:23;;;;;;;16.55;10.63;;;10.70;99.90;;;;;;5095595;28;20157;-68
2022/04/23 03:46:49;;;;;;;18.40;10.95;;;;;;;;;;5095381;28;20043;-68
2022/04/23 03:49:15;;;;;;;13.18;10.13;;;;;;;;;;5094562;28;20040;-68
2022/04/23 03:51:41;;;;;;;18.73;9.73;;;10.50;99.90;;;;;;5095304;28;20040;-68
2022/04/23 03:54:07;;;;;;;12.35;8.95;;;;;;;;;;5093821;28;20044;-68
2022/04/23 03:56:33;;;;;;;16.75;10.05;;;;;;;;;;5095413;28;20071;-68
2022/04/23 03:59:00;;;;;;;18.77;9.63;;;;;;;;;;5094619;28;20451;-69
2022/04/23 04:01:26;;;;;;;13.18;9.35;;;10.40;99.90;;;;;;5093426;28;20050;-69
2022/04/23 04:03:52;;;;;;;19.38;11.05;;;;;;;;;;5093727;28;20071;-68
2022/04/23 04:06:18;;;;;;;13.20;9.77;;;;;;;;;;5096139;28;20405;-69
2022/04/23 04:08:50;;;;;;;15.57;9.93;;;10.40;99.90;;;;;;5094551;28;20072;-68
2022/04/23 04:11:15;;;;;;;11.43;8.70;;;10.50;99.90;;;;;;5077567;28;20072;-68
2022/04/23 04:13:43;;;;;;;18.55;10.93;;;;;;;;;;5095021;28;20032;-68
2022/04/23 04:16:09;;;;;;;13.63;9.93;;;10.40;99.90;;;;;;5094905;28;20058;-68
2022/04/23 04:18:35;;;;;;;17.50;10.18;;;;;;;;;;5093588;28;20047;-68
2022/04/23 04:21:01;;;;;;;14.00;9.30;;;;;;;;;;5093878;28;20115;-68
2022/04/23 04:23:27;;;;;;;12.38;9.85;;;10.50;99.90;;;;;;5093267;28;20040;-69
2022/04/23 04:25:53;;;;;;;11.48;9.20;;;;;;;;;;5094794;28;20036;-69
2022/04/23 04:28:20;;;;;;;14.80;9.70;;;;;;;;;;5093377;28;20406;-68
2022/04/23 04:33:30;;;;;;;12.80;9.23;;;10.40;99.90;;;;;;5093138;28;20130;-69
2022/04/23 04:35:56;;;;;;;18.50;10.02;;;10.30;99.90;;;;;;5094612;28;20115;-68
2022/04/23 04:38:22;;;;;;;13.05;9.60;;;;;;;;;;5094477;28;20051;-69
2022/04/23 04:40:48;;;;;;;12.48;9.10;;;;;;;;;;5091203;28;20040;-69
2022/04/23 04:43:14;;;;;;;16.30;9.93;;;;;;;;;;5093140;28;20188;-67
2022/04/23 04:45:40;;;;;;;13.10;9.70;;;;;;;;;;5092904;28;20036;-68
2022/04/23 04:48:06;;;;;;;10.18;9.02;;;;;;;;;;5094084;28;20412;-68
2022/04/23 04:50:32;;;;;;;13.40;9.35;;;;;;;;;;5091999;28;20047;-68
2022/04/23 04:52:58;;;;;;;13.43;8.95;;;10.50;99.90;;;;;;5094253;28;20123;-68
2022/04/23 04:55:24;;;;;;;11.73;9.85;;;;;;;;;;5092910;28;20047;-68
2022/04/23 04:57:50;;;;;;;13.68;9.02;;;10.40;99.90;;;;;;5092810;28;20097;-68
2022/04/23 05:00:16;;;;;;;13.45;9.88;;;10.30;99.90;;;;;;5093205;28;20043;-68
2022/04/23 05:02:42;;;;;;;13.32;9.25;;;10.30;99.90;;;;;;5092575;28;20043;-68
2022/04/23 05:05:08;;;;;;;12.40;9.55;;;10.40;99.90;;;;;;5094041;28;20077;-68
2022/04/23 05:07:34;;;;;;;14.50;10.10;;;10.50;99.90;;;;;;5092506;28;20532;-68
2022/04/23 05:10:00;;;;;;;14.98;10.27;;;10.60;99.90;;;;;;5093068;28;20036;-68
2022/04/23 05:12:26;;;;;;;12.35;9.82;;;10.50;99.90;;;;;;5092397;28;20044;-68
2022/04/23 05:14:52;;;;;;;9.75;8.73;;;;;;;;;;5075554;28;20040;-68
2022/04/23 05:17:18;;;;;;;12.63;8.93;;;;;;;;;;5118610;22;20516;-72
2022/04/23 05:19:44;;;;;;;14.77;8.90;;;10.40;99.90;;;;;;5089422;28;20083;-72
2022/04/23 05:22:10;;;;;;;12.43;9.73;;;10.30;99.90;;;;;;5093946;28;20040;-72
2022/04/23 05:24:35;;;;;;;11.18;8.43;;;10.40;99.90;;;;;;5092628;28;20502;-72
2022/04/23 05:27:01;;;;;;;13.23;9.35;;;10.40;99.90;;;;;;5092627;28;20075;-72
2022/04/23 05:29:27;;;;;;;13.52;9.65;;;10.40;99.90;;;;;;5074853;28;20089;-72
2022/04/23 05:31:53;;;;;;;13.73;9.50;;;;;;;;;;5075547;28;20387;-72
2022/04/23 05:34:19;;;;;;;12.10;9.55;;;;;;;;;;5075722;28;20083;-72
2022/04/23 05:36:45;;;;;;;12.13;9.85;;;;;;;;;;5092264;28;20082;-72
2022/04/23 05:39:11;;;;;;;12.15;9.57;;;10.60;99.90;;;;;;5092893;28;20075;-72
2022/04/23 05:41:36;;;;;;;11.85;8.70;;;10.60;99.90;;;;;;5093485;28;20039;-72
2022/04/23 05:44:02;;;;;;;11.30;8.85;;;10.60;99.90;;;;;;5092278;28;20122;-72
2022/04/23 05:46:28;;;;;;;11.70;9.20;;;;;;;;;;5092283;28;20067;-72
2022/04/23 05:48:55;;;;;;;13.15;9.10;;;10.60;99.90;;;;;;5091814;28;20127;-72
2022/04/23 05:51:20;;;;;;;13.18;9.88;;;10.80;99.90;;;;;;5075130;28;20040;-72
2022/04/23 05:53:46;;;;;;;12.60;9.82;;;10.60;99.90;;;;;;5091929;28;20043;-72
2022/04/23 05:56:12;;;;;;;14.23;8.98;;;;;;;;;;5075120;28;20042;-72
2022/04/23 05:58:38;;;;;;;12.55;9.10;;;;;;;;;;5061376;28;20063;-72
2022/04/23 06:01:04;;;;;;;12.38;9.02;;;10.90;99.90;;;;;;5086380;28;20047;-72
2022/04/23 06:03:30;;;;;;;11.85;9.63;;;;;;;;;;5097247;28;20035;-72
2022/04/23 06:05:56;;;;;;;12.18;9.07;;;;;;;;;;5093761;28;20036;-71
2022/04/23 06:08:22;;;;;;;12.32;9.55;;;11.00;99.90;;;;;;5097593;28;20059;-72
2022/04/23 06:10:47;;;;;;;12.13;8.82;;;11.00;99.90;;;;;;5096469;28;20497;-72
2022/04/23 06:13:14;;;;;;;11.35;9.57;;;;;;;;;;5099384;28;20039;-72
2022/04/23 06:15:40;;;;;;;16.85;9.35;;;;;;;;;;5107388;28;20048;-72
2022/04/23 06:18:06;;;;;;;12.57;9.35;;;;;;;;;;5102818;28;20039;-72
2022/04/23 06:20:32;;;;;;;12.32;9.63;;;;;;;;;;5093358;28;20044;-72
2022/04/23 06:22:58;;;;;;;11.85;8.55;;;;;;;;;;5103254;28;20104;-72
2022/04/23 06:25:24;;;;;;;12.65;9.05;;;;;;;;;;5101343;28;20040;-72
2022/04/23 06:27:53;;;;;;;12.65;9.32;;;;;;;;;;5100988;28;20039;-72
2022/04/23 06:30:19;;;;;;;13.15;9.70;;;;;;;;;;5100379;28;20036;-73
2022/04/23 06:32:44;;;;;;;11.60;8.82;;;11.10;99.90;;;;;;5090606;28;20043;-73
2022/04/23 06:35:10;;;;;;;12.82;8.98;;;11.20;99.90;;;;;;5085513;28;20043;-74
2022/04/23 06:37:41;;;;;;;12.48;9.85;;;11.30;99.90;;;;;;5089444;28;20091;-74
2022/04/23 06:40:08;;;;;;;12.73;9.82;;;11.30;99.90;;;;;;5089767;28;20031;-73
2022/04/23 06:42:34;;;;;;;13.55;9.35;;;11.30;99.90;;;;;;5096201;28;20115;-74
2022/04/23 06:44:59;;;;;;;13.75;9.63;;;11.30;99.90;;;;;;5063983;28;20165;-73
2022/04/23 06:47:25;;;;;;;11.00;9.55;;;;;;;;;;5094609;28;20122;-73
2022/04/23 06:49:51;;;;;;;13.75;9.50;;;11.30;99.90;;;;;;5081468;28;20504;-74
2022/04/23 06:52:17;;;;;;;10.70;9.45;;;;;;;;;;5081687;28;20040;-73
2022/04/23 06:54:42;;;;;;;14.02;10.00;;;11.50;99.90;;;;;;5086507;28;20074;-74
2022/04/23 06:57:08;;;;;;;14.80;9.90;;;;;;;;;;5083126;28;20036;-74
2022/04/23 06:59:34;;;;;;;11.82;9.60;;;11.70;99.90;;;;;;5079546;28;20033;-74
2022/04/23 07:02:02;;;;;;;16.80;10.20;;;11.80;99.90;;;;;;5080345;28;20043;-74
2022/04/23 07:04:29;;;;;;;12.07;9.63;;;12.30;99.90;;;;;;5081777;28;20090;-73
2022/04/23 07:06:54;;;;;;;13.00;10.30;;;;;;;;;;5064572;28;20543;-73
2022/04/23 07:09:20;;;;;;;12.02;9.75;;;12.00;99.90;;;;;;5080688;28;20036;-73
2022/04/23 07:11:47;;;;;;;11.75;9.38;;;;;;;;;;5081713;28;20048;-74
2022/04/23 07:14:13;;;;;;;11.43;9.45;;;11.90;99.90;;;;;;5079709;28;20115;-74
2022/04/23 07:16:39;;;;;;;14.98;10.70;;;12.10;99.90;;;;;;5079673;28;20131;-74
2022/04/23 07:19:07;;;;;;;13.75;10.05;;;12.20;99.90;;;;;;5086157;28;20078;-74
2022/04/23 07:21:34;;;;;;;12.52;10.13;;;12.30;99.90;;;;;;5079973;28;20045;-73
2022/04/23 07:24:03;;;;;;;13.45;10.73;;;12.30;99.90;;;;;;5080672;28;20036;-73
2022/04/23 07:26:29;;;;;;;17.80;10.85;;;;;;;;;;5075303;28;20029;-74
2022/04/23 07:28:55;;;;;;;14.20;9.57;;;;;;;;;;5079628;28;20051;-73
2022/04/23 07:31:20;;;;;;;12.20;9.98;;;12.60;99.90;;;;;;5072397;28;20119;-75
2022/04/23 07:39:15;;;;;;;14.07;9.65;;;;;;;;;;5096794;28;20082;-74
2022/04/23 07:41:41;;;;;;;14.55;9.88;;;12.70;99.90;;;;;;5085457;28;20069;-74
2022/04/23 07:44:07;;;;;;;14.05;9.80;;;;;;;;;;5066641;28;20045;-74
2022/04/23 07:46:33;;;;;;;13.73;9.88;;;;;;;;;;5083644;28;20040;-74
2022/04/23 07:48:58;;;;;;;13.68;8.98;;;13.00;99.90;;;;;;5087000;28;20156;-75
2022/04/23 07:51:27;;;;;;;12.82;9.27;;;12.90;99.90;;;;;;5085607;28;20038;-74
2022/04/23 07:53:53;;;;;;;11.27;9.77;;;13.20;99.90;;;;;;5089776;28;20094;-73
2022/04/23 07:56:19;;;;;;;13.52;8.90;;;13.10;99.90;;;;;;5107624;28;20083;-73
2022/04/23 07:58:45;;;;;;;10.65;8.30;;;;;;;;;;5107026;28;20094;-73
2022/04/23 08:01:10;;;;;;;15.98;9.00;;;13.20;99.90;;;;;;5088413;28;20557;-73
2022/04/23 08:03:36;;;;;;;11.30;8.65;;;;;;;;;;5107278;28;20034;-74
2022/04/23 08:06:03;;;;;;;11.50;9.63;;;13.30;99.90;;;;;;5103301;28;20051;-74
2022/04/23 08:08:29;;;;;;;12.63;8.95;;;;;;;;;;5083448;28;20089;-74
2022/04/23 08:10:54;;;;;;;12.63;9.38;;;13.40;99.90;;;;;;5083546;28;20165;-73
2022/04/23 08:13:20;;;;;;;12.40;8.65;;;;;;;;;;5086633;28;20075;-73
2022/04/23 08:15:46;;;;;;;11.90;9.55;;;13.50;99.90;;;;;;5087642;28;20070;-73
2022/04/23 08:18:12;;;;;;;14.00;10.55;;;;;;;;;;5090739;28;20044;-73
2022/04/23 08:20:41;;;;;;;13.93;9.27;;;;;;;;;;5088640;28;20048;-73
2022/04/23 08:23:07;;;;;;;15.63;9.85;;;13.60;99.90;;;;;;5080949;28;20398;-73
2022/04/23 08:25:32;;;;;;;11.38;9.35;;;13.70;99.90;;;;;;5081400;28;20081;-73
2022/04/23 08:30:34;;;;;;;12.73;8.70;;;;;;;;;;5091451;28;20032;-73
2022/04/23 08:30:45;;;;;;;16.55;9.98;;;;;;;;;;5090499;28;20040;-73
2022/04/23 08:33:11;;;;;;;11.93;8.95;;;;;;;;;;5091710;28;20044;-73
2022/04/23 08:35:37;;;;;;;11.45;9.68;;;13.90;99.90;;;;;;5092577;28;20399;-73
2022/04/23 08:38:04;;;;;;;12.23;8.93;;;13.70;99.80;;;;;;5094135;28;20409;-73
2022/04/23 08:40:39;;;;;;;12.07;9.48;;;14.00;99.90;;;;;;5074695;28;20082;-74
2022/04/23 08:43:06;;;;;;;12.45;9.60;;;;;;;;;;5092193;28;20044;-74
2022/04/23 08:45:35;;;;;;;13.95;9.93;;;14.00;99.90;;;;;;5093182;28;20099;-73
2022/04/23 08:48:06;;;;;;;13.13;9.75;;;14.00;99.50;;;;;;5090925;27;20032;-74
2022/04/23 08:50:33;;;;;;;10.18;9.05;;;14.00;99.90;;;;;;5092937;28;20047;-73
2022/04/23 08:53:01;;;;;;;14.30;10.10;;;14.40;99.50;;;;;;5092428;28;20044;-74
2022/04/23 08:55:27;;;;;;;12.40;9.18;;;14.30;99.90;;;;;;5089780;28;20173;-73
2022/04/23 08:57:54;;;;;;;15.05;9.77;;;;;;;;;;5070819;28;20394;-73
2022/04/23 09:00:20;;;;;;;16.65;10.50;;;;;;;;;;5086389;28;20127;-73
2022/04/23 09:02:47;;;;;;;13.52;9.10;;;;;;;;;;5091835;28;20179;-74
2022/04/23 09:05:13;;;;;;;14.90;10.07;;;14.40;99.60;;;;;;5092288;28;20059;-74
2022/04/23 09:07:39;;;;;;;11.52;9.23;;;14.60;99.70;;;;;;5092126;28;20036;-74
2022/04/23 09:10:06;;;;;;;10.40;9.20;;;14.70;99.70;;;;;;5092303;28;20342;-74
2022/04/23 09:12:32;;;;;;;12.90;9.13;;;14.70;99.60;;;;;;5092403;28;20044;-74
2022/04/23 09:23:40;;;;;;;12.25;9.05;;;15.20;98.50;;;;;;5092590;28;20044;-74
2022/04/23 09:26:18;;;;;;;11.23;8.73;;;15.20;98.60;;;;;;5092823;28;20040;-74
2022/04/23 09:28:50;;;;;;;11.60;8.10;;;15.10;98.20;;;;;;5093466;28;20085;-74
2022/04/23 09:31:16;;;;;;;11.13;9.48;;;15.30;98.20;;;;;;5093399;28;20439;-74
2022/04/23 09:33:49;;;;;;;10.65;8.45;;;15.30;97.90;;;;;;5126779;27;20049;-74
2022/04/23 09:36:14;;;;;;;14.88;9.07;;;15.10;97.90;;;;;;5093988;28;20036;-74
2022/04/23 09:38:40;;;;;;;11.95;8.20;;;;;;;;;;5093674;28;20509;-74
2022/04/23 09:41:20;;;;;;;11.98;7.53;;;15.20;97.40;;;;;;5093219;28;20047;-74
2022/04/23 09:43:50;;;;;;;12.25;9.23;;;15.40;98.00;;;;;;5093718;28;20047;-74
2022/04/23 09:46:17;;;;;;;14.30;8.75;;;;;;;;;;5092461;28;20143;-75
2022/04/23 09:48:43;;;;;;;13.27;8.07;;;15.60;97.60;;;;;;5093736;28;20044;-74
2022/04/23 09:51:24;;;;;;;8.70;7.47;;;15.60;96.50;;;;;;5091505;28;20406;-74
2022/04/23 09:53:53;;;;;;;12.43;8.65;;;15.70;97.30;;;;;;5075788;28;20040;-74
2022/04/23 09:56:20;;;;;;;11.70;7.82;;;15.60;96.40;;;;;;5092530;28;20482;-74
2022/04/23 09:58:47;;;;;;;13.98;8.60;;;15.70;97.40;;;;;;5075513;28;20051;-74
2022/04/23 10:01:13;;;;;;;11.05;8.40;;;15.70;97.20;;;;;;5089162;28;20044;-74
2022/04/23 10:03:44;;;;;;;11.07;7.85;;;15.90;97.00;;;;;;5104767;28;20520;-74
2022/04/23 10:06:11;;;;;;;9.40;8.18;;;15.90;97.20;;;;;;5102050;28;20059;-74
2022/04/23 10:08:42;;;;;;;8.60;7.60;;;15.90;97.20;;;;;;5091350;28;20044;-74
2022/04/23 10:11:19;;;;;;;10.73;8.27;;;15.80;97.20;;;;;;5101645;28;20048;-74
2022/04/23 10:13:48;;;;;;;8.75;7.85;;;15.80;97.00;;;;;;5091602;28;20040;-74
2022/04/23 10:16:14;;;;;;;9.88;7.35;;;16.00;96.00;;;;;;5091264;28;20093;-74
2022/04/23 10:18:40;;;;;;;15.20;7.80;;;16.40;97.30;;;;;;5095706;28;20039;-74
2022/04/23 10:21:09;;;;;;;9.32;8.25;;;16.20;96.80;;;;;;5098596;28;20468;-74
2022/04/23 10:23:58;;;;;;;10.35;8.13;;;16.10;96.60;;;;;;5096924;28;20035;-74
2022/04/23 10:26:40;;;;;;;12.43;9.13;;;16.20;95.20;;;;;;5104471;28;20083;-75
2022/04/23 10:29:09;;;;;;;11.85;9.05;;;16.00;96.50;;;;;;5095048;28;20074;-76
2022/04/23 10:31:35;;;;;;;11.13;8.90;;;16.10;96.70;;;;;;5100850;28;20067;-75
2022/04/23 10:34:01;;;;;;;9.85;8.18;;;16.30;96.90;;;;;;5098164;28;20078;-75
2022/04/23 10:36:27;;;;;;;13.05;9.00;;;;;;;;;;5100473;28;20059;-75
2022/04/23 10:39:19;;;;;;;12.93;9.05;;;16.30;96.60;;;;;;5097604;28;20035;-73
2022/04/23 10:41:44;;;;;;;10.73;8.55;;;16.20;96.70;;;;;;5085093;28;20040;-74
2022/04/23 10:44:10;;;;;;;10.63;8.55;;;16.40;96.70;;;;;;5093616;28;20051;-75
2022/04/23 10:46:45;;;;;;;14.00;9.63;;;16.50;96.90;;;;;;5104373;28;20040;-74
2022/04/23 10:49:17;;;;;;;11.63;10.38;;;16.50;96.70;;;;;;5075842;28;20071;-75
2022/04/23 10:51:49;;;;;;;12.43;9.13;;;16.50;95.00;;;;;;5101298;28;20044;-74
2022/04/23 10:54:18;;;;;;;11.03;9.47;;;16.60;96.60;;;;;;5092950;28;20043;-75
2022/04/23 10:56:51;;;;;;;10.13;8.77;;;16.70;96.70;;;;;;5101241;28;20639;-74
2022/04/23 10:59:38;;;;;;;12.95;9.20;;;16.60;96.40;;;;;;5101696;28;20508;-74
2022/04/23 11:02:11;;;;;;;12.20;9.32;;;16.80;96.30;;;;;;5096574;28;20067;-74
2022/04/23 11:13:31;;;;;;;9.15;8.05;;;17.00;96.40;;;;;;5100342;28;20519;-74
2022/04/23 11:16:10;;;;;;;13.05;9.02;;;17.10;96.40;;;;;;5099081;28;20526;-75
2022/04/23 11:18:37;;;;;;;9.32;8.10;;;17.00;96.00;;;;;;5095810;28;20035;-75
2022/04/23 11:21:09;;;;;;;12.30;8.88;;;17.10;96.20;;;;;;5102912;28;20047;-75
2022/04/23 11:23:37;;;;;;;11.88;8.60;;;17.30;96.00;;;;;;5099176;28;20058;-76
2022/04/23 11:26:03;;;;;;;9.57;7.97;;;17.30;95.40;;;;;;5098636;28;20083;-75
2022/04/23 11:28:29;;;;;;;10.38;7.97;;;17.30;95.40;;;;;;5103103;28;20400;-75
2022/04/23 11:31:01;;;;;;;11.07;8.48;;;17.20;94.50;;;;;;5093079;28;20028;-75
2022/04/23 11:33:27;;;;;;;14.90;8.73;;;17.40;94.60;;;;;;5101559;28;20118;-75
2022/04/23 11:35:57;;;;;;;10.25;8.38;;;17.30;94.40;;;;;;5099122;28;20541;-75
2022/04/23 11:38:27;;;;;;;9.60;8.18;;;17.50;94.50;;;;;;5097505;28;20047;-76
2022/04/23 11:40:52;;;;;;;13.23;8.98;;;17.30;95.40;;;;;;5102137;28;20041;-75
2022/04/23 11:43:32;;;;;;;13.65;9.95;;;17.30;95.40;;;;;;5091074;28;20038;-75
2022/04/23 11:46:06;;;;;;;10.15;8.70;;;17.40;95.70;;;;;;5099410;28;20131;-75
2022/04/23 11:48:48;;;;;;;11.05;8.98;;;17.30;94.40;;;;;;5109577;28;20040;-75
2022/04/23 11:51:19;;;;;;;10.77;9.05;;;17.50;94.60;;;;;;5098094;28;20047;-75
2022/04/23 11:53:57;;;;;;;8.70;7.80;;;17.60;94.90;;;;;;5105303;28;20505;-75
2022/04/23 11:56:29;;;;;;;8.75;7.85;;;17.90;95.70;;;;;;5100371;28;20566;-75
2022/04/23 11:59:06;;;;;;;10.27;8.90;;;17.60;94.00;;;;;;5105991;28;20386;-74
2022/04/23 12:01:32;;;;;;;11.80;8.95;;;18.40;93.90;;;;;;5091229;28;20040;-75
2022/04/23 12:03:58;;;;;;;12.07;8.02;;;17.70;94.30;;;;;;5099405;28;20043;-74
2022/04/23 12:06:25;;;;;;;11.45;8.75;;;17.80;93.40;;;;;;5106064;28;20447;-75
2022/04/23 12:09:02;;;;;;;10.82;8.32;;;17.60;94.30;;;;;;5093694;28;20031;-74
2022/04/23 12:11:28;;;;;;;9.30;8.30;;;17.70;94.10;;;;;;5086785;28;20433;-74
2022/04/23 12:13:54;;;;;;;11.80;7.82;;;17.80;94.20;;;;;;5095895;28;20060;-75
2022/04/23 12:16:39;;;;;;;11.57;7.93;;;17.80;92.60;;;;;;5103150;28;20031;-75
2022/04/23 12:19:07;;;;;;;8.50;7.60;;;17.80;94.00;;;;;;5096354;28;20038;-74
2022/04/23 12:21:33;;;;;;;8.60;7.70;;;18.10;94.00;;;;;;5103211;28;20450;-74
2022/04/23 12:23:59;;;;;;;9.93;7.97;;;18.00;93.80;;;;;;5109451;28;20055;-75
2022/04/23 12:26:33;;;;;;;11.15;7.05;;;18.50;92.80;;;;;;5101148;28;20097;-72
2022/04/23 12:42:27;;;;;;;8.15;6.57;;;18.50;93.30;;;;;;5091394;28;20123;-72
2022/04/23 12:44:53;;;;;;;8.60;7.63;;;18.80;92.90;;;;;;5093068;28;20043;-72
2022/04/23 12:47:48;;;;;;;13.02;7.03;;;18.60;92.70;;;;;;5090693;28;20085;-71
2022/04/23 12:50:26;;;;;;;11.38;6.80;;;18.20;93.00;;;;;;5083435;28;20397;-72
2022/04/23 12:52:52;;;;;;;9.73;7.57;;;18.60;93.30;;;;;;5089900;28;20275;-70
2022/04/23 12:55:25;;;;;;;7.53;6.82;;;18.50;92.90;;;;;;5086826;28;20182;-70
2022/04/23 12:57:50;;;;;;;;;;;18.60;92.40;;;;;;5081441;28;20513;-71
2022/04/23 13:00:19;;;;;;;11.73;7.10;;;18.70;93.10;;;;;;5089267;28;19925;-71
2022/04/23 13:02:52;;;;;;;8.15;6.07;;;18.50;92.60;;;;;;5092146;28;20060;-70
2022/04/23 13:05:18;;;;;;;8.80;6.55;;;18.60;92.90;;;;;;5090221;28;20528;-71
2022/04/23 13:10:28;;;;;;;9.85;6.63;;;18.50;92.30;;;;;;5100660;28;20047;-70
2022/04/23 13:12:54;;;;;;;9.07;5.68;;;18.60;92.60;;;;;;5101190;28;20036;-70
2022/04/23 13:15:20;;;;;;;7.78;6.30;;;18.80;92.20;;;;;;5098493;28;20050;-71
2022/04/23 13:17:47;;;;;;;8.68;5.80;;;18.70;92.00;;;;;;5100120;28;20557;-72
2022/04/23 13:20:14;;;;;;;7.47;6.20;;;18.60;92.00;;;;;;5086696;28;20100;-71
2022/04/23 13:22:41;;;;;;;7.38;5.72;;;19.00;92.60;;;;;;5079115;28;20032;-71
2022/04/23 13:25:07;;;;;;;7.20;6.30;;;18.90;92.70;;;;;;5088523;28;20040;-72
2022/04/23 13:27:33;;;;;;;7.57;5.90;;;19.00;92.80;;;;;;5099456;28;20032;-71
2022/04/23 13:29:59;;;;;;;11.43;5.45;;;18.80;92.40;;;;;;5098420;28;20051;-71
2022/04/23 13:32:25;;;;;;;7.30;5.40;;;19.00;92.50;;;;;;5103882;28;20116;-72
2022/04/23 13:34:51;;;;;;;6.18;5.47;;;18.80;92.10;;;;;;5105048;28;20040;-72
2022/04/23 13:37:18;;;;;;;5.88;5.25;;;18.90;92.70;;;;;;5096832;28;20177;-72
2022/04/23 13:39:44;;;;;;;7.13;5.10;;;18.90;92.10;;;;;;5103352;28;20043;-71
2022/04/23 13:42:09;;;;;;;8.50;5.63;;;18.90;92.10;;;;;;5103310;28;20039;-73
2022/04/23 13:44:36;;;;;;;5.97;5.00;;;18.70;92.20;;;;;;5104613;28;20044;-74
2022/04/23 13:47:03;;;;;;;7.75;5.57;;;19.10;92.50;;;;;;5104219;28;20042;-74
2022/04/23 13:49:28;;;;;;;7.70;5.85;;;19.10;92.70;;;;;;5083771;28;20139;-74